Time;durP1;ratioP1;P1;durP2;ratioP2;P2;SDS_P1;SDS_P2;PMS_P1;PMS_P2;Temp;Humidity;BMP_temperature;BMP_pressure;BME280_temperature;BME280_humidity;BME280_pressure;Samples;Min_cycle;Max_cycle;Signal;HPM_P1;HPM_P2
2023/06/06 00:00:13;;;;;;;8.07;4.35;;;;;;;11.69;95.50;98693.91;4158247;28;20083;-72
2023/06/06 00:02:13;;;;;;;6.90;4.13;;;;;;;11.72;95.10;98701.44;4157606;28;20500;-72
2023/06/06 00:04:13;;;;;;;5.07;3.95;;;;;;;11.66;95.94;98697.41;4156248;28;20025;-72
2023/06/06 00:06:15;;;;;;;5.18;4.10;;;;;;;11.50;97.38;98705.97;4157961;28;20120;-72
2023/06/06 00:08:19;;;;;;;5.85;4.10;;;;;;;11.47;95.95;98708.69;4155498;28;20037;-72
2023/06/06 00:10:20;;;;;;;6.70;4.78;;;;;;;11.49;95.12;98703.56;4152074;28;20038;-71
2023/06/06 00:12:20;;;;;;;8.88;5.00;;;;;;;11.45;96.49;98694.41;4155877;28;20057;-71
2023/06/06 00:14:22;;;;;;;6.47;4.35;;;;;;;11.27;98.43;98702.53;4154286;28;20144;-71
2023/06/06 00:16:27;;;;;;;7.00;4.35;;;;;;;11.16;97.76;98687.72;4153704;28;20175;-71
2023/06/06 00:18:27;;;;;;;6.32;4.22;;;;;;;11.09;98.14;98691.22;4156264;28;20033;-71
2023/06/06 00:20:32;;;;;;;7.78;5.10;;;;;;;10.92;100.00;98698.13;4157128;28;20493;-72
2023/06/06 00:22:33;;;;;;;7.50;4.65;;;;;;;10.81;100.00;98696.38;4156031;28;20053;-71
2023/06/06 00:24:33;;;;;;;6.60;4.82;;;;;;;10.78;100.00;98688.81;4156883;28;20702;-71
2023/06/06 00:26:33;;;;;;;4.78;4.28;;;;;;;10.72;100.00;98695.84;4157288;28;20442;-71
2023/06/06 00:28:34;;;;;;;7.10;4.40;;;;;;;10.72;100.00;98690.31;4157159;28;20039;-71
2023/06/06 00:30:34;;;;;;;7.82;4.85;;;;;;;10.58;100.00;98682.59;4156909;28;20046;-71
2023/06/06 00:32:35;;;;;;;7.07;4.20;;;;;;;10.54;100.00;98688.09;4156124;28;20036;-71
2023/06/06 00:34:35;;;;;;;5.47;4.20;;;;;;;10.60;100.00;98683.84;4157135;28;20038;-71
2023/06/06 00:36:36;;;;;;;6.00;4.63;;;;;;;10.61;100.00;98687.41;4157174;28;20413;-71
2023/06/06 00:38:36;;;;;;;6.25;4.80;;;;;;;10.58;100.00;98690.91;4156470;28;20037;-71
2023/06/06 00:40:36;;;;;;;6.63;4.45;;;;;;;10.51;100.00;98691.63;4157142;28;20757;-71
2023/06/06 00:42:37;;;;;;;7.05;4.38;;;;;;;10.52;100.00;98700.72;4159443;28;20045;-71
2023/06/06 00:44:37;;;;;;;7.10;6.13;;;;;;;10.50;100.00;98691.97;4160066;28;20068;-71
2023/06/06 00:46:37;;;;;;;8.48;5.55;;;;;;;10.57;100.00;98697.59;4159942;28;20049;-71
2023/06/06 00:48:38;;;;;;;7.05;5.22;;;;;;;10.58;100.00;98694.47;4158969;28;20128;-71
2023/06/06 00:50:40;;;;;;;7.97;5.22;;;;;;;10.60;100.00;98691.34;4160683;28;20038;-71
2023/06/06 00:52:45;;;;;;;5.53;4.82;;;;;;;10.63;99.65;98694.16;4159248;28;20128;-71
2023/06/06 00:54:45;;;;;;;5.88;4.72;;;;;;;10.71;98.56;98695.06;4160212;28;20037;-71
2023/06/06 00:56:49;;;;;;;8.27;4.40;;;;;;;10.85;97.52;98697.22;4160542;28;20049;-71
2023/06/06 00:58:49;;;;;;;7.53;5.13;;;;;;;10.76;100.00;98691.16;4159894;28;20208;-71
2023/06/06 01:00:51;;;;;;;11.63;4.82;;;;;;;10.59;100.00;98692.50;4159920;28;20404;-70
2023/06/06 01:02:52;;;;;;;6.45;4.85;;;;;;;10.45;100.00;98686.75;4159291;28;20049;-71
2023/06/06 01:04:53;;;;;;;5.13;4.13;;;;;;;10.37;100.00;98685.84;4157632;28;20065;-71
2023/06/06 01:06:53;;;;;;;8.32;4.65;;;;;;;10.30;100.00;98688.50;4159406;28;20186;-71
2023/06/06 01:08:53;;;;;;;7.68;4.80;;;;;;;10.29;100.00;98686.91;4159867;28;20064;-71
2023/06/06 01:11:06;;;;;;;6.57;4.30;;;;;;;10.26;100.00;98688.47;4159897;28;20466;-71
2023/06/06 01:13:26;;;;;;;11.18;5.47;;;;;;;10.20;100.00;98695.44;4159445;28;20056;-71
2023/06/06 01:15:48;;;;;;;6.70;4.60;;;;;;;10.19;100.00;98699.38;4158484;28;20470;-71
2023/06/06 01:17:49;;;;;;;7.10;4.95;;;;;;;10.16;100.00;98689.03;4159959;28;20045;-71
2023/06/06 01:19:50;;;;;;;7.55;4.55;;;;;;;10.05;100.00;98694.38;4158029;28;20437;-71
2023/06/06 01:21:51;;;;;;;8.13;5.03;;;;;;;10.01;100.00;98692.72;4159662;28;20049;-71
2023/06/06 01:23:53;;;;;;;11.30;4.55;;;;;;;10.04;100.00;98698.31;4158516;28;20165;-71
2023/06/06 01:25:53;;;;;;;11.63;4.90;;;;;;;10.17;100.00;98700.88;4160066;28;20124;-71
2023/06/06 01:27:55;;;;;;;8.48;4.75;;;;;;;10.18;100.00;98705.25;4159835;28;20433;-70
2023/06/06 01:29:55;;;;;;;6.18;4.30;;;;;;;10.33;98.64;98716.19;4159156;28;20120;-70
2023/06/06 01:32:08;;;;;;;6.82;4.32;;;;;;;10.28;100.00;98730.34;4159793;28;20045;-71
2023/06/06 01:34:33;;;;;;;5.43;4.28;;;;;;;9.90;100.00;98730.44;4156961;28;20038;-71
2023/06/06 01:36:44;;;;;;;8.43;4.85;;;;;;;9.64;100.00;98720.09;4157244;28;20493;-71
2023/06/06 01:38:48;;;;;;;5.50;4.68;;;;;;;9.43;100.00;98718.53;4159490;28;20045;-71
2023/06/06 01:40:52;;;;;;;6.15;4.57;;;;;;;9.34;100.00;98723.44;4157608;28;20511;-70
2023/06/06 01:42:54;;;;;;;8.32;5.20;;;;;;;9.21;100.00;98716.50;4156632;28;20120;-70
2023/06/06 01:44:56;;;;;;;5.65;4.93;;;;;;;9.12;100.00;98718.66;4158631;28;20052;-70
2023/06/06 01:46:56;;;;;;;6.10;4.72;;;;;;;8.98;100.00;98719.16;4155986;28;20136;-70
2023/06/06 01:48:57;;;;;;;6.03;5.00;;;;;;;8.89;100.00;98716.59;4157292;28;20493;-70
2023/06/06 01:50:57;;;;;;;7.05;4.88;;;;;;;8.98;100.00;98716.41;4157775;28;20842;-70
2023/06/06 01:52:58;;;;;;;6.45;4.72;;;;;;;9.03;100.00;98707.84;4157331;28;20052;-70
2023/06/06 01:54:58;;;;;;;6.43;5.07;;;;;;;9.09;100.00;98720.19;4159226;28;20072;-71
2023/06/06 01:57:00;;;;;;;8.75;5.15;;;;;;;9.06;100.00;98715.38;4159391;28;20080;-70
2023/06/06 01:59:00;;;;;;;7.35;5.03;;;;;;;8.97;100.00;98718.38;4157127;28;20132;-71
2023/06/06 02:01:02;;;;;;;6.00;5.10;;;;;;;8.87;100.00;98729.19;4158716;28;20600;-71
2023/06/06 02:03:03;;;;;;;11.10;4.90;;;;;;;8.91;100.00;98719.81;4158000;28;20320;-70
2023/06/06 02:05:04;;;;;;;6.80;4.75;;;;;;;9.01;100.00;98730.25;4159054;28;20033;-70
2023/06/06 02:07:04;;;;;;;8.63;4.95;;;;;;;9.11;100.00;98736.41;4159341;28;20044;-70
2023/06/06 02:09:06;;;;;;;8.40;5.93;;;;;;;8.95;100.00;98731.72;4156914;28;20369;-71
2023/06/06 02:11:06;;;;;;;10.48;6.18;;;;;;;8.75;100.00;98738.34;4157958;28;20044;-71
2023/06/06 02:13:07;;;;;;;8.07;5.78;;;;;;;8.56;100.00;98736.34;4157852;28;20073;-71
2023/06/06 02:15:09;;;;;;;11.52;6.35;;;;;;;8.51;100.00;98739.38;4158216;28;20536;-70
2023/06/06 02:17:10;;;;;;;9.10;5.90;;;;;;;8.45;100.00;98746.34;4156802;28;20065;-70
2023/06/06 02:19:10;;;;;;;8.15;5.97;;;;;;;8.42;100.00;98745.06;4158951;28;20508;-70
2023/06/06 02:21:12;;;;;;;9.55;6.05;;;;;;;8.31;100.00;98748.72;4157894;28;20076;-70
2023/06/06 02:23:13;;;;;;;10.30;6.10;;;;;;;8.33;100.00;98749.94;4156671;28;20448;-70
2023/06/06 02:25:14;;;;;;;7.00;5.15;;;;;;;8.35;100.00;98746.84;4158949;28;20381;-70
2023/06/06 02:27:15;;;;;;;7.38;4.97;;;;;;;8.37;100.00;98739.84;4158556;28;20033;-70
2023/06/06 02:29:15;;;;;;;8.02;5.10;;;;;;;8.42;100.00;98739.56;4158341;28;20496;-70
2023/06/06 02:31:16;;;;;;;7.50;5.13;;;;;;;8.44;100.00;98740.03;4158212;28;20504;-70
2023/06/06 02:33:17;;;;;;;7.75;4.97;;;;;;;8.48;100.00;98737.34;4157250;28;20041;-70
2023/06/06 02:35:20;;;;;;;10.95;4.93;;;;;;;8.46;100.00;98739.66;4159239;28;20408;-70
2023/06/06 02:37:21;;;;;;;7.38;5.07;;;;;;;8.42;100.00;98741.53;4158714;28;20025;-70
2023/06/06 02:39:21;;;;;;;8.38;5.88;;;;;;;8.31;100.00;98737.69;4158587;28;20428;-70
2023/06/06 02:41:22;;;;;;;8.60;5.30;;;;;;;8.29;100.00;98746.31;4157997;28;20057;-70
2023/06/06 02:43:22;;;;;;;5.57;4.65;;;;;;;8.26;100.00;98738.75;4157795;28;20500;-70
2023/06/06 02:45:22;;;;;;;7.60;5.80;;;;;;;8.27;100.00;98743.09;4158312;28;20049;-70
2023/06/06 02:47:23;;;;;;;7.40;5.35;;;;;;;8.17;100.00;98744.44;4158688;28;20037;-70
2023/06/06 02:49:23;;;;;;;6.10;5.18;;;;;;;8.15;100.00;98740.44;4158762;28;20053;-70
2023/06/06 02:51:24;;;;;;;7.70;5.15;;;;;;;8.11;100.00;98740.38;4157749;28;20132;-70
2023/06/06 02:53:24;;;;;;;6.32;5.07;;;;;;;8.08;100.00;98741.06;4157774;28;20501;-70
2023/06/06 02:55:24;;;;;;;10.52;5.55;;;;;;;8.01;100.00;98738.13;4156767;28;20037;-70
2023/06/06 02:57:25;;;;;;;8.07;5.20;;;;;;;8.10;100.00;98735.19;4158077;28;20084;-70
2023/06/06 02:59:25;;;;;;;6.95;5.28;;;;;;;8.06;100.00;98734.31;4158667;28;20045;-70
2023/06/06 03:01:26;;;;;;;11.50;5.43;;;;;;;8.13;100.00;98738.03;4156653;28;20045;-70
2023/06/06 03:03:26;;;;;;;6.47;5.15;;;;;;;8.06;100.00;98734.31;4155592;28;20381;-70
2023/06/06 03:05:29;;;;;;;12.10;5.22;;;;;;;8.08;100.00;98743.81;4156661;28;20502;-70
2023/06/06 03:07:30;;;;;;;9.50;5.60;;;;;;;8.05;100.00;98740.97;4155769;28;20041;-70
2023/06/06 03:09:30;;;;;;;7.68;5.50;;;;;;;8.01;100.00;98740.88;4157671;28;20040;-70
2023/06/06 03:11:31;;;;;;;7.00;5.22;;;;;;;8.04;100.00;98740.19;4158117;28;20501;-70
2023/06/06 03:13:32;;;;;;;6.68;5.47;;;;;;;8.04;100.00;98748.44;4157585;28;20049;-70
2023/06/06 03:15:32;;;;;;;7.18;5.38;;;;;;;8.09;100.00;98753.69;4158355;28;20140;-70
2023/06/06 03:17:33;;;;;;;10.15;6.57;;;;;;;8.10;100.00;98740.69;4158356;28;20041;-70
2023/06/06 03:19:33;;;;;;;6.97;4.90;;;;;;;8.15;100.00;98749.50;4157723;28;20053;-70
2023/06/06 03:21:34;;;;;;;7.18;5.28;;;;;;;8.16;100.00;98753.84;4158906;28;20064;-70
2023/06/06 03:23:34;;;;;;;8.40;5.50;;;;;;;8.16;100.00;98750.31;4158083;28;20053;-70
2023/06/06 03:25:35;;;;;;;5.40;4.88;;;;;;;8.17;100.00;98755.47;4157885;28;20120;-70
2023/06/06 03:27:35;;;;;;;6.22;5.40;;;;;;;8.08;100.00;98757.59;4157116;28;20045;-70
2023/06/06 03:29:35;;;;;;;11.32;5.78;;;;;;;8.04;100.00;98753.16;4157904;28;20485;-70
2023/06/06 03:31:37;;;;;;;10.05;5.65;;;;;;;8.00;100.00;98755.81;4158344;28;20464;-70
2023/06/06 03:33:37;;;;;;;9.73;5.35;;;;;;;8.01;100.00;98760.16;4156352;28;20179;-70
2023/06/06 03:35:38;;;;;;;7.18;5.40;;;;;;;8.00;100.00;98763.28;4159316;28;20053;-70
2023/06/06 03:37:40;;;;;;;13.18;6.45;;;;;;;8.07;100.00;98768.97;4159396;28;20512;-70
2023/06/06 03:39:42;;;;;;;9.52;5.93;;;;;;;8.02;100.00;98770.03;4157967;28;20156;-70
2023/06/06 03:41:42;;;;;;;8.85;5.45;;;;;;;7.96;100.00;98771.47;4157537;28;20072;-70
2023/06/06 03:43:43;;;;;;;11.55;5.55;;;;;;;7.96;100.00;98768.69;4157350;28;20033;-70
2023/06/06 03:45:43;;;;;;;6.85;5.40;;;;;;;7.98;100.00;98773.84;4158422;28;20065;-70
2023/06/06 03:47:45;;;;;;;9.25;5.40;;;;;;;7.94;100.00;98776.50;4157478;28;20568;-70
2023/06/06 03:49:45;;;;;;;7.45;5.05;;;;;;;7.90;100.00;98775.63;4156886;28;20046;-70
2023/06/06 03:51:46;;;;;;;14.07;5.40;;;;;;;7.92;100.00;98776.06;4133624;28;20389;-70
2023/06/06 03:53:46;;;;;;;8.93;6.13;;;;;;;7.94;100.00;98770.19;4143513;28;20034;-70
2023/06/06 03:55:46;;;;;;;8.38;6.18;;;;;;;7.91;100.00;98771.69;4141042;28;20133;-70
2023/06/06 03:57:47;;;;;;;10.65;6.40;;;;;;;7.89;100.00;98774.03;4142520;28;20757;-70
2023/06/06 03:59:47;;;;;;;6.82;5.43;;;;;;;7.94;100.00;98770.19;4141657;28;20042;-70
2023/06/06 04:01:48;;;;;;;7.68;5.65;;;;;;;7.93;100.00;98777.66;4140237;28;20045;-70
2023/06/06 04:03:48;;;;;;;8.15;5.45;;;;;;;7.98;100.00;98768.34;4140720;28;20500;-70
2023/06/06 04:05:50;;;;;;;7.03;5.40;;;;;;;7.97;100.00;98775.81;4141863;28;20121;-70
2023/06/06 04:07:50;;;;;;;9.13;5.63;;;;;;;8.04;100.00;98780.72;4140907;28;20033;-70
2023/06/06 04:09:51;;;;;;;9.70;6.05;;;;;;;8.02;100.00;98778.28;4142235;28;20045;-70
2023/06/06 04:11:51;;;;;;;10.57;6.35;;;;;;;8.00;100.00;98780.59;4156857;28;20079;-70
2023/06/06 04:13:52;;;;;;;7.15;5.85;;;;;;;8.01;100.00;98781.41;4157356;28;20068;-70
2023/06/06 04:15:52;;;;;;;9.02;5.63;;;;;;;8.02;100.00;98786.56;4156832;28;20496;-70
2023/06/06 04:17:52;;;;;;;9.98;5.38;;;;;;;8.03;100.00;98790.13;4158610;28;20040;-70
2023/06/06 04:19:53;;;;;;;7.93;5.18;;;;;;;8.03;100.00;98784.63;4157748;28;20401;-70
2023/06/06 04:21:54;;;;;;;8.88;6.18;;;;;;;8.01;100.00;98786.91;4157268;28;20060;-70
2023/06/06 04:23:55;;;;;;;6.78;5.72;;;;;;;8.01;100.00;98793.22;4156713;28;20061;-70
2023/06/06 04:25:56;;;;;;;7.32;5.45;;;;;;;8.08;100.00;98798.94;4157716;28;20393;-70
2023/06/06 04:27:56;;;;;;;7.25;5.53;;;;;;;8.21;100.00;98799.66;4157516;28;20041;-70
2023/06/06 04:29:57;;;;;;;8.00;5.72;;;;;;;8.21;100.00;98796.91;4157729;28;20073;-70
2023/06/06 04:31:59;;;;;;;8.18;5.93;;;;;;;8.15;100.00;98795.56;4156830;28;20038;-70
2023/06/06 04:34:00;;;;;;;9.65;5.50;;;;;;;8.12;100.00;98797.06;4155419;28;20120;-70
2023/06/06 04:36:01;;;;;;;7.32;5.88;;;;;;;8.12;100.00;98790.78;4157192;28;20044;-71
2023/06/06 04:38:01;;;;;;;9.32;6.05;;;;;;;8.14;100.00;98797.53;4156562;28;20076;-71
2023/06/06 04:40:05;;;;;;;10.10;6.70;;;;;;;8.18;100.00;98797.59;4157259;28;20033;-71
2023/06/06 04:42:06;;;;;;;7.80;5.43;;;;;;;8.13;100.00;98803.41;4157867;28;20037;-70
2023/06/06 04:44:08;;;;;;;8.50;5.75;;;;;;;8.19;100.00;98804.72;4155252;28;20026;-70
2023/06/06 04:46:08;;;;;;;15.18;6.90;;;;;;;8.18;100.00;98795.63;4156923;28;20662;-70
2023/06/06 04:48:08;;;;;;;9.75;6.00;;;;;;;8.19;100.00;98796.44;4157572;28;20087;-70
2023/06/06 04:50:09;;;;;;;9.15;6.05;;;;;;;8.29;100.00;98801.44;4157579;28;20180;-70
2023/06/06 04:52:12;;;;;;;12.32;6.35;;;;;;;8.32;100.00;98803.47;4157001;28;20068;-70
2023/06/06 04:54:12;;;;;;;13.43;6.13;;;;;;;8.34;100.00;98790.13;4156738;28;20056;-70
2023/06/06 04:56:13;;;;;;;9.32;6.20;;;;;;;8.36;100.00;98800.88;4156090;28;20045;-70
2023/06/06 04:58:14;;;;;;;10.23;6.68;;;;;;;8.34;100.00;98801.16;4157269;28;20029;-70
2023/06/06 05:00:14;;;;;;;10.15;6.40;;;;;;;8.35;100.00;98797.28;4157764;28;20056;-70
2023/06/06 05:02:16;;;;;;;11.18;7.18;;;;;;;8.49;100.00;98804.31;4157444;28;20033;-70
2023/06/06 05:04:17;;;;;;;8.15;6.35;;;;;;;8.59;100.00;98809.28;4156986;28;20109;-70
2023/06/06 05:06:17;;;;;;;10.30;6.00;;;;;;;8.73;100.00;98801.38;4157146;28;20112;-70
2023/06/06 05:08:19;;;;;;;10.25;6.18;;;;;;;8.84;100.00;98805.16;4156705;28;20041;-70
2023/06/06 05:10:19;;;;;;;9.57;6.15;;;;;;;8.83;100.00;98806.34;4157281;28;20026;-70
2023/06/06 05:12:24;;;;;;;10.85;6.00;;;;;;;8.90;100.00;98805.72;4157209;28;20028;-70
2023/06/06 05:14:24;;;;;;;9.88;6.32;;;;;;;9.01;100.00;98810.28;4156941;28;20041;-70
2023/06/06 05:16:25;;;;;;;6.70;5.13;;;;;;;9.20;100.00;98809.56;4156770;28;20029;-70
2023/06/06 05:18:25;;;;;;;10.38;5.93;;;;;;;9.37;100.00;98807.56;4157337;28;20053;-70
2023/06/06 05:20:25;;;;;;;8.50;5.65;;;;;;;9.52;100.00;98807.50;4156922;28;20053;-70
2023/06/06 05:22:26;;;;;;;12.25;6.35;;;;;;;9.70;100.00;98810.63;4156299;28;20655;-70
2023/06/06 05:24:26;;;;;;;8.05;5.78;;;;;;;9.82;100.00;98804.13;4156857;28;20047;-70
2023/06/06 05:26:26;;;;;;;8.60;5.88;;;;;;;9.95;100.00;98805.56;4158053;28;20132;-70
2023/06/06 05:28:28;;;;;;;9.70;6.35;;;;;;;9.91;100.00;98801.13;4160031;28;20072;-70
2023/06/06 05:30:28;;;;;;;9.27;5.83;;;;;;;9.90;100.00;98810.59;4160132;28;20382;-70
2023/06/06 05:32:29;;;;;;;9.85;6.32;;;;;;;9.89;100.00;98815.31;4159755;28;20045;-70
2023/06/06 05:34:30;;;;;;;9.10;6.20;;;;;;;9.96;100.00;98822.97;4159929;28;20057;-70
2023/06/06 05:36:30;;;;;;;8.98;6.35;;;;;;;9.96;100.00;98820.19;4160059;28;20095;-70
2023/06/06 05:38:31;;;;;;;9.13;6.68;;;;;;;9.95;100.00;98819.41;4159594;28;20041;-70
2023/06/06 05:40:31;;;;;;;9.00;6.28;;;;;;;9.98;100.00;98809.56;4160053;28;20490;-70
2023/06/06 05:42:31;;;;;;;7.00;6.03;;;;;;;10.02;100.00;98815.97;4157950;28;20046;-70
2023/06/06 05:44:32;;;;;;;10.50;6.78;;;;;;;10.00;100.00;98810.78;4157795;28;20124;-70
2023/06/06 05:46:33;;;;;;;8.48;5.97;;;;;;;10.07;100.00;98807.38;4160686;28;20263;-70
2023/06/06 05:48:33;;;;;;;6.90;5.45;;;;;;;10.12;100.00;98807.88;4161657;28;20049;-70
2023/06/06 05:50:34;;;;;;;7.32;5.43;;;;;;;10.19;100.00;98800.88;4162767;28;20041;-70
2023/06/06 05:52:35;;;;;;;9.55;5.55;;;;;;;10.26;100.00;98806.53;4160603;28;20160;-70
2023/06/06 05:54:36;;;;;;;10.77;6.45;;;;;;;10.33;100.00;98799.16;4162161;28;20167;-70
2023/06/06 05:56:36;;;;;;;9.60;5.95;;;;;;;10.39;100.00;98796.91;4159747;28;20161;-70
2023/06/06 05:58:36;;;;;;;8.23;6.00;;;;;;;10.42;100.00;98801.69;4156960;28;20116;-70
2023/06/06 06:00:38;;;;;;;8.35;6.22;;;;;;;10.43;100.00;98799.75;4158254;28;20052;-70
2023/06/06 06:02:41;;;;;;;11.60;6.05;;;;;;;10.49;100.00;98809.31;4158708;28;20041;-70
2023/06/06 06:04:42;;;;;;;9.70;5.97;;;;;;;10.56;100.00;98801.94;4159369;28;20037;-70
2023/06/06 06:06:46;;;;;;;7.63;6.05;;;;;;;10.60;100.00;98815.84;4158653;28;20037;-70
2023/06/06 06:08:49;;;;;;;9.25;5.90;;;;;;;10.66;100.00;98823.44;4157651;28;20042;-70
2023/06/06 06:10:50;;;;;;;8.98;6.18;;;;;;;10.69;100.00;98817.19;4154770;28;20049;-70
2023/06/06 06:12:50;;;;;;;10.13;6.13;;;;;;;10.76;100.00;98822.06;4157562;28;20124;-70
2023/06/06 06:14:50;;;;;;;8.00;6.10;;;;;;;10.79;100.00;98818.53;4158934;28;20041;-70
2023/06/06 06:16:51;;;;;;;9.63;6.40;;;;;;;10.84;100.00;98825.69;4159272;28;20094;-70
2023/06/06 06:18:51;;;;;;;9.45;6.55;;;;;;;10.89;100.00;98830.94;4159002;28;20596;-70
2023/06/06 06:20:51;;;;;;;9.60;6.68;;;;;;;10.98;100.00;98834.25;4156965;28;20037;-70
2023/06/06 06:22:52;;;;;;;10.18;6.60;;;;;;;11.06;100.00;98837.91;4158340;28;20103;-70
2023/06/06 06:24:52;;;;;;;6.43;5.45;;;;;;;11.11;100.00;98835.63;4158674;28;20555;-70
2023/06/06 06:26:52;;;;;;;7.97;6.35;;;;;;;11.17;100.00;98833.31;4159122;28;20048;-70
2023/06/06 06:28:54;;;;;;;7.95;6.35;;;;;;;11.20;100.00;98832.59;4158882;28;20193;-70
2023/06/06 06:30:54;;;;;;;9.48;6.63;;;;;;;11.27;100.00;98837.44;4156644;28;20041;-70
2023/06/06 06:32:55;;;;;;;6.88;5.97;;;;;;;11.37;100.00;98836.78;4156546;28;20050;-71
2023/06/06 06:34:55;;;;;;;11.70;6.50;;;;;;;11.50;100.00;98833.44;4157858;28;20404;-70
2023/06/06 06:36:55;;;;;;;10.07;6.47;;;;;;;11.66;100.00;98837.97;4158772;28;20086;-70
2023/06/06 06:38:56;;;;;;;11.02;6.25;;;;;;;11.86;100.00;98838.66;4157727;28;20144;-70
2023/06/06 06:40:56;;;;;;;9.57;6.68;;;;;;;12.12;100.00;98835.78;4158520;28;20075;-70
2023/06/06 06:42:56;;;;;;;9.55;6.55;;;;;;;12.33;100.00;98838.78;4154846;28;20047;-70
2023/06/06 06:44:57;;;;;;;10.20;6.13;;;;;;;12.52;100.00;98840.56;4158019;28;20041;-70
2023/06/06 06:46:57;;;;;;;10.23;6.40;;;;;;;12.69;100.00;98836.34;4158080;28;20037;-70
2023/06/06 06:48:57;;;;;;;6.97;6.00;;;;;;;12.85;100.00;98847.97;4158474;28;20046;-70
2023/06/06 06:50:58;;;;;;;9.55;6.00;;;;;;;13.00;100.00;98839.78;4157650;28;20080;-71
2023/06/06 06:52:58;;;;;;;9.88;6.20;;;;;;;13.17;100.00;98834.34;4156265;28;20116;-71
2023/06/06 06:55:00;;;;;;;6.45;5.72;;;;;;;13.30;100.00;98837.63;4158343;28;20110;-70
2023/06/06 06:57:00;;;;;;;9.32;6.35;;;;;;;13.45;100.00;98833.75;4158712;28;20439;-70
2023/06/06 06:59:01;;;;;;;7.95;6.00;;;;;;;13.58;100.00;98830.66;4158396;28;20041;-70
2023/06/06 07:01:02;;;;;;;7.82;6.00;;;;;;;13.71;100.00;98840.22;4158325;28;20164;-70
2023/06/06 07:03:04;;;;;;;9.90;5.65;;;;;;;13.85;100.00;98843.06;4158453;28;20100;-70
2023/06/06 07:05:05;;;;;;;10.77;6.53;;;;;;;13.99;100.00;98832.00;4158138;28;20124;-70
2023/06/06 07:07:06;;;;;;;7.00;5.27;;;;;;;14.12;100.00;98838.00;4158264;28;20061;-71
2023/06/06 07:09:06;;;;;;;9.40;6.13;;;;;;;14.26;95.53;98842.81;4157946;28;20186;-71
2023/06/06 07:11:07;;;;;;;7.70;4.93;;;;;;;14.41;95.44;98832.50;4158303;28;20072;-71
2023/06/06 07:13:07;;;;;;;8.50;5.72;;;;;;;14.59;94.11;98836.16;4157466;28;20128;-71
2023/06/06 07:15:09;;;;;;;6.25;5.50;;;;;;;14.66;99.89;98840.94;4158100;28;20128;-71
2023/06/06 07:17:09;;;;;;;7.80;5.18;;;;;;;14.78;98.31;98832.19;4158332;28;20057;-71
2023/06/06 07:19:09;;;;;;;8.40;5.25;;;;;;;14.83;93.63;98832.59;4157376;28;20045;-71
2023/06/06 07:21:12;;;;;;;5.85;5.25;;;;;;;15.04;100.00;98830.97;4156901;28;20512;-71
2023/06/06 07:23:12;;;;;;;7.82;5.63;;;;;;;15.32;100.00;98838.50;4157349;28;20061;-71
2023/06/06 07:25:14;;;;;;;8.75;5.78;;;;;;;15.60;100.00;98830.06;4153182;28;20037;-71
2023/06/06 07:27:15;;;;;;;5.72;4.93;;;;;;;15.86;100.00;98836.38;4155030;28;20508;-71
2023/06/06 07:29:15;;;;;;;5.60;4.97;;;;;;;16.09;99.03;98828.31;4157584;28;20096;-71
2023/06/06 07:31:16;;;;;;;6.72;5.43;;;;;;;16.38;97.26;98831.72;4157907;28;20041;-71
2023/06/06 07:33:16;;;;;;;8.38;5.18;;;;;;;16.41;95.29;98824.53;4156695;28;20033;-71
2023/06/06 07:35:21;;;;;;;8.90;4.97;;;;;;;16.43;95.39;98836.09;4157722;28;20466;-71
2023/06/06 07:37:22;;;;;;;8.52;4.78;;;;;;;16.43;93.81;98836.88;4156718;28;20041;-71
2023/06/06 07:39:22;;;;;;;7.40;4.55;;;;;;;16.45;93.66;98828.88;4156844;28;20045;-71
2023/06/06 07:41:24;;;;;;;7.07;4.40;;;;;;;16.43;90.83;98827.72;4158154;28;20160;-71
2023/06/06 07:43:25;;;;;;;6.13;4.40;;;;;;;16.36;91.88;98830.56;4156900;28;20144;-71
2023/06/06 07:45:25;;;;;;;5.53;4.22;;;;;;;16.34;92.21;98824.59;4157437;28;20478;-71
2023/06/06 07:47:26;;;;;;;8.52;4.78;;;;;;;16.32;91.82;98827.78;4157724;28;20319;-71
2023/06/06 07:49:26;;;;;;;9.93;4.65;;;;;;;16.34;93.40;98830.16;4157444;28;20041;-71
2023/06/06 07:51:28;;;;;;;5.00;3.92;;;;;;;16.34;93.72;98827.38;4157572;28;20073;-71
2023/06/06 07:53:29;;;;;;;6.75;4.40;;;;;;;16.26;90.57;98829.41;4156049;28;20154;-71
2023/06/06 07:55:30;;;;;;;5.38;4.22;;;;;;;16.32;90.62;98832.59;4150498;28;20069;-71
2023/06/06 07:57:31;;;;;;;8.97;4.60;;;;;;;16.30;93.43;98824.59;4156956;28;20064;-71
2023/06/06 07:59:32;;;;;;;6.07;4.13;;;;;;;16.33;92.63;98825.78;4157602;28;20478;-71
2023/06/06 08:01:33;;;;;;;9.23;4.47;;;;;;;16.35;93.19;98828.97;4155141;28;20045;-71
2023/06/06 08:03:33;;;;;;;6.05;4.38;;;;;;;16.34;93.28;98836.53;4155475;28;20535;-71
2023/06/06 08:05:34;;;;;;;9.00;4.38;;;;;;;16.35;93.51;98824.16;4155165;28;20136;-71
2023/06/06 08:07:44;;;;;;;6.22;4.32;;;;;;;16.33;92.43;98834.97;4152343;28;20049;-71
2023/06/06 08:09:45;;;;;;;6.95;4.60;;;;;;;16.32;92.73;98830.59;4148353;28;20129;-71
2023/06/06 08:11:46;;;;;;;9.70;4.50;;;;;;;16.35;92.81;98835.34;4148931;28;20084;-71
2023/06/06 08:13:46;;;;;;;7.05;4.68;;;;;;;16.34;93.18;98836.53;4147970;28;20168;-71
2023/06/06 08:15:47;;;;;;;7.22;3.90;;;;;;;16.37;92.73;98829.34;4152304;28;20081;-71
2023/06/06 08:17:47;;;;;;;7.63;4.45;;;;;;;16.38;93.24;98831.72;4154452;28;20037;-71
2023/06/06 08:19:47;;;;;;;5.78;4.32;;;;;;;16.39;92.30;98832.53;4156688;28;20544;-69
2023/06/06 08:21:48;;;;;;;6.10;4.13;;;;;;;16.38;90.04;98828.94;4156594;28;20045;-70
2023/06/06 08:23:48;;;;;;;5.75;3.65;;;;;;;16.35;89.51;98821.38;4156057;28;20049;-70
2023/06/06 08:25:49;;;;;;;7.43;4.13;;;;;;;16.34;89.18;98830.97;4157253;28;20041;-70
2023/06/06 08:27:49;;;;;;;6.00;3.97;;;;;;;16.34;90.38;98832.97;4156596;28;20057;-70
2023/06/06 08:29:50;;;;;;;7.15;3.97;;;;;;;16.29;91.09;98832.19;4156681;28;20042;-70
2023/06/06 08:31:52;;;;;;;5.90;3.72;;;;;;;16.25;88.08;98820.25;4156531;28;20493;-70
2023/06/06 08:33:52;;;;;;;6.38;4.40;;;;;;;16.26;90.08;98819.03;4155921;28;20052;-70
2023/06/06 08:35:52;;;;;;;6.38;3.97;;;;;;;16.28;90.00;98816.63;4156702;28;20390;-70
2023/06/06 08:37:53;;;;;;;6.07;4.00;;;;;;;16.26;89.42;98819.03;4156602;28;20045;-70
2023/06/06 08:39:54;;;;;;;4.80;3.80;;;;;;;16.31;90.32;98820.63;4156738;28;20048;-70
2023/06/06 08:41:56;;;;;;;5.80;3.97;;;;;;;16.32;90.44;98819.41;4156343;28;20041;-71
2023/06/06 08:43:57;;;;;;;8.00;4.05;;;;;;;16.34;90.15;98821.78;4155823;28;20034;-70
2023/06/06 08:45:58;;;;;;;7.63;4.07;;;;;;;16.35;89.24;98823.38;4156231;28;20056;-70
2023/06/06 08:48:02;;;;;;;5.15;3.83;;;;;;;16.38;89.64;98826.13;4156904;28;20160;-70
2023/06/06 08:50:04;;;;;;;7.53;4.00;;;;;;;16.36;88.84;98822.97;4156066;28;20759;-70
2023/06/06 08:52:06;;;;;;;6.72;4.13;;;;;;;16.35;88.14;98815.78;4157111;28;20033;-70
2023/06/06 08:54:06;;;;;;;5.40;4.00;;;;;;;16.30;88.28;98821.81;4154706;28;20025;-70
2023/06/06 08:56:08;;;;;;;6.75;3.50;;;;;;;16.28;88.24;98827.00;4156659;28;20044;-70
2023/06/06 08:58:10;;;;;;;4.70;3.92;;;;;;;16.26;87.64;98833.00;4156647;28;20036;-71
2023/06/06 09:00:18;;;;;;;5.32;3.50;;;;;;;16.27;87.97;98826.22;4156326;28;20037;-70
2023/06/06 09:02:18;;;;;;;5.18;3.53;;;;;;;16.29;87.25;98821.00;4159160;28;20459;-70
2023/06/06 09:04:20;;;;;;;8.15;3.67;;;;;;;16.27;87.62;98829.00;4159066;28;20030;-70
2023/06/06 09:06:21;;;;;;;9.50;4.00;;;;;;;16.26;86.30;98833.00;4159798;28;20033;-70
2023/06/06 09:08:21;;;;;;;4.28;3.35;;;;;;;16.29;86.39;98831.38;4159501;28;20103;-70
2023/06/06 09:10:22;;;;;;;3.63;3.17;;;;;;;16.33;86.70;98839.75;4158126;28;20103;-70
2023/06/06 09:12:22;;;;;;;4.63;3.63;;;;;;;16.32;86.53;98835.38;4160114;28;20083;-70
2023/06/06 09:14:22;;;;;;;5.53;3.50;;;;;;;16.32;86.74;98847.34;4160936;28;20510;-69
2023/06/06 09:16:24;;;;;;;4.50;3.15;;;;;;;16.33;87.18;98848.13;4159190;28;20042;-70
2023/06/06 09:18:28;;;;;;;7.63;3.80;;;;;;;16.40;87.71;98843.31;4159526;28;20084;-71
2023/06/06 09:20:29;;;;;;;4.53;3.55;;;;;;;16.39;87.50;98841.72;4159087;28;20695;-70
2023/06/06 09:22:32;;;;;;;5.38;3.40;;;;;;;16.46;87.67;98843.66;4158887;28;20045;-71
2023/06/06 09:24:32;;;;;;;;;;;;;;;16.47;88.37;98848.06;4159160;28;20049;-70
2023/06/06 09:26:38;;;;;;;4.20;3.10;;;;;;;16.51;88.54;98844.03;4159893;28;20326;-70